sensor_id;sensor_type;location;lat;lon;timestamp;P1;durP1;ratioP1;P2;durP2;ratioP2
44048;SDS011;29717;47.028;15.470;2022-08-05T00:02:09;4.00;;;3.70;;
44048;SDS011;29717;47.028;15.470;2022-08-05T00:04:40;5.72;;;3.97;;
44048;SDS011;29717;47.028;15.470;2022-08-05T00:07:07;4.18;;;3.88;;
44048;SDS011;29717;47.028;15.470;2022-08-05T00:09:34;4.55;;;3.90;;
44048;SDS011;29717;47.028;15.470;2022-08-05T00:12:01;4.13;;;3.80;;
44048;SDS011;29717;47.028;15.470;2022-08-05T00:14:28;5.50;;;3.95;;
44048;SDS011;29717;47.028;15.470;2022-08-05T00:16:55;4.05;;;3.72;;
44048;SDS011;29717;47.028;15.470;2022-08-05T00:19:22;4.13;;;3.83;;
44048;SDS011;29717;47.028;15.470;2022-08-05T00:21:51;4.15;;;3.72;;
44048;SDS011;29717;47.028;15.470;2022-08-05T00:24:17;4.97;;;4.07;;
44048;SDS011;29717;47.028;15.470;2022-08-05T00:26:44;4.07;;;3.78;;
44048;SDS011;29717;47.028;15.470;2022-08-05T00:29:11;4.65;;;4.07;;
44048;SDS011;29717;47.028;15.470;2022-08-05T00:31:38;4.65;;;4.25;;
44048;SDS011;29717;47.028;15.470;2022-08-05T00:34:05;4.50;;;4.10;;
44048;SDS011;29717;47.028;15.470;2022-08-05T00:36:32;4.13;;;3.63;;
44048;SDS011;29717;47.028;15.470;2022-08-05T00:39:00;4.00;;;3.70;;
44048;SDS011;29717;47.028;15.470;2022-08-05T00:41:28;3.83;;;3.53;;
44048;SDS011;29717;47.028;15.470;2022-08-05T00:43:55;4.57;;;4.10;;
44048;SDS011;29717;47.028;15.470;2022-08-05T00:46:22;4.82;;;4.43;;
44048;SDS011;29717;47.028;15.470;2022-08-05T00:48:49;5.72;;;4.20;;
44048;SDS011;29717;47.028;15.470;2022-08-05T00:51:16;5.18;;;4.43;;
44048;SDS011;29717;47.028;15.470;2022-08-05T00:53:43;4.80;;;4.00;;
44048;SDS011;29717;47.028;15.470;2022-08-05T00:56:11;4.70;;;3.97;;
44048;SDS011;29717;47.028;15.470;2022-08-05T00:58:38;7.63;;;4.20;;
44048;SDS011;29717;47.028;15.470;2022-08-05T01:01:05;4.63;;;4.22;;
44048;SDS011;29717;47.028;15.470;2022-08-05T01:03:32;4.93;;;4.22;;
44048;SDS011;29717;47.028;15.470;2022-08-05T01:05:59;5.13;;;4.10;;
44048;SDS011;29717;47.028;15.470;2022-08-05T01:08:25;4.78;;;4.35;;
44048;SDS011;29717;47.028;15.470;2022-08-05T01:10:53;4.38;;;3.65;;
44048;SDS011;29717;47.028;15.470;2022-08-05T01:13:26;4.90;;;4.40;;
44048;SDS011;29717;47.028;15.470;2022-08-05T01:15:58;4.50;;;4.10;;
44048;SDS011;29717;47.028;15.470;2022-08-05T01:18:25;4.78;;;4.07;;
44048;SDS011;29717;47.028;15.470;2022-08-05T01:21:00;4.57;;;3.85;;
44048;SDS011;29717;47.028;15.470;2022-08-05T01:23:34;4.53;;;3.85;;
44048;SDS011;29717;47.028;15.470;2022-08-05T01:26:12;4.38;;;3.97;;
44048;SDS011;29717;47.028;15.470;2022-08-05T01:28:46;4.60;;;4.20;;
44048;SDS011;29717;47.028;15.470;2022-08-05T01:31:17;4.70;;;4.40;;
44048;SDS011;29717;47.028;15.470;2022-08-05T01:33:49;4.88;;;4.57;;
44048;SDS011;29717;47.028;15.470;2022-08-05T01:36:17;4.38;;;4.07;;
44048;SDS011;29717;47.028;15.470;2022-08-05T01:38:44;4.30;;;3.90;;
44048;SDS011;29717;47.028;15.470;2022-08-05T01:41:12;4.78;;;4.38;;
44048;SDS011;29717;47.028;15.470;2022-08-05T01:43:40;4.63;;;4.22;;
44048;SDS011;29717;47.028;15.470;2022-08-05T01:46:09;5.18;;;4.00;;
44048;SDS011;29717;47.028;15.470;2022-08-05T01:48:36;4.30;;;4.00;;
44048;SDS011;29717;47.028;15.470;2022-08-05T01:51:04;4.78;;;4.47;;
44048;SDS011;29717;47.028;15.470;2022-08-05T01:53:32;5.85;;;4.50;;
44048;SDS011;29717;47.028;15.470;2022-08-05T01:56:00;4.80;;;4.43;;
44048;SDS011;29717;47.028;15.470;2022-08-05T01:58:28;4.50;;;4.20;;
44048;SDS011;29717;47.028;15.470;2022-08-05T02:00:56;4.53;;;4.13;;
44048;SDS011;29717;47.028;15.470;2022-08-05T02:03:26;5.28;;;4.60;;
44048;SDS011;29717;47.028;15.470;2022-08-05T02:05:54;5.00;;;4.50;;
44048;SDS011;29717;47.028;15.470;2022-08-05T02:08:21;6.60;;;4.40;;
44048;SDS011;29717;47.028;15.470;2022-08-05T02:10:49;4.88;;;4.38;;
44048;SDS011;29717;47.028;15.470;2022-08-05T02:13:17;6.53;;;4.80;;
44048;SDS011;29717;47.028;15.470;2022-08-05T02:15:46;4.65;;;4.30;;
44048;SDS011;29717;47.028;15.470;2022-08-05T02:18:17;5.68;;;4.63;;
44048;SDS011;29717;47.028;15.470;2022-08-05T02:20:48;5.40;;;4.00;;
44048;SDS011;29717;47.028;15.470;2022-08-05T02:23:15;4.78;;;4.38;;
44048;SDS011;29717;47.028;15.470;2022-08-05T02:25:44;5.07;;;4.53;;
44048;SDS011;29717;47.028;15.470;2022-08-05T02:28:11;4.80;;;4.38;;
44048;SDS011;29717;47.028;15.470;2022-08-05T02:30:41;4.57;;;4.18;;
44048;SDS011;29717;47.028;15.470;2022-08-05T02:33:08;4.88;;;4.47;;
44048;SDS011;29717;47.028;15.470;2022-08-05T02:35:36;6.93;;;4.68;;
44048;SDS011;29717;47.028;15.470;2022-08-05T02:38:04;4.90;;;4.50;;
44048;SDS011;29717;47.028;15.470;2022-08-05T02:40:32;4.85;;;4.45;;
44048;SDS011;29717;47.028;15.470;2022-08-05T02:42:59;4.85;;;4.45;;
44048;SDS011;29717;47.028;15.470;2022-08-05T02:45:26;5.60;;;4.85;;
44048;SDS011;29717;47.028;15.470;2022-08-05T02:47:54;5.32;;;4.85;;
44048;SDS011;29717;47.028;15.470;2022-08-05T02:50:21;5.40;;;4.88;;
44048;SDS011;29717;47.028;15.470;2022-08-05T02:52:48;5.32;;;4.93;;
44048;SDS011;29717;47.028;15.470;2022-08-05T02:55:17;5.47;;;4.90;;
44048;SDS011;29717;47.028;15.470;2022-08-05T02:57:44;5.55;;;5.00;;
44048;SDS011;29717;47.028;15.470;2022-08-05T03:00:12;7.20;;;4.97;;
44048;SDS011;29717;47.028;15.470;2022-08-05T03:02:44;5.25;;;4.85;;
44048;SDS011;29717;47.028;15.470;2022-08-05T03:05:12;6.13;;;5.05;;
44048;SDS011;29717;47.028;15.470;2022-08-05T03:07:41;5.38;;;4.88;;
44048;SDS011;29717;47.028;15.470;2022-08-05T03:10:09;5.00;;;4.60;;
44048;SDS011;29717;47.028;15.470;2022-08-05T03:12:38;7.95;;;4.90;;
44048;SDS011;29717;47.028;15.470;2022-08-05T03:15:05;5.00;;;4.60;;
44048;SDS011;29717;47.028;15.470;2022-08-05T03:17:33;5.60;;;4.90;;
44048;SDS011;29717;47.028;15.470;2022-08-05T03:20:00;7.07;;;4.95;;
44048;SDS011;29717;47.028;15.470;2022-08-05T03:22:27;6.00;;;5.05;;
44048;SDS011;29717;47.028;15.470;2022-08-05T03:24:53;6.18;;;4.65;;
44048;SDS011;29717;47.028;15.470;2022-08-05T03:27:21;5.72;;;5.13;;
44048;SDS011;29717;47.028;15.470;2022-08-05T03:29:49;5.85;;;5.20;;
44048;SDS011;29717;47.028;15.470;2022-08-05T03:32:16;5.97;;;4.78;;
44048;SDS011;29717;47.028;15.470;2022-08-05T03:34:44;5.95;;;5.35;;
44048;SDS011;29717;47.028;15.470;2022-08-05T03:37:11;5.28;;;4.80;;
44048;SDS011;29717;47.028;15.470;2022-08-05T03:39:38;5.32;;;4.90;;
44048;SDS011;29717;47.028;15.470;2022-08-05T03:42:16;7.05;;;4.70;;
44048;SDS011;29717;47.028;15.470;2022-08-05T03:44:43;5.78;;;5.22;;
44048;SDS011;29717;47.028;15.470;2022-08-05T03:47:11;5.13;;;4.65;;
44048;SDS011;29717;47.028;15.470;2022-08-05T03:49:38;7.90;;;5.35;;
44048;SDS011;29717;47.028;15.470;2022-08-05T03:52:08;5.57;;;5.07;;
44048;SDS011;29717;47.028;15.470;2022-08-05T03:54:37;6.13;;;5.53;;
44048;SDS011;29717;47.028;15.470;2022-08-05T03:57:05;6.05;;;5.53;;
44048;SDS011;29717;47.028;15.470;2022-08-05T03:59:37;8.93;;;6.10;;
44048;SDS011;29717;47.028;15.470;2022-08-05T04:02:05;6.35;;;5.75;;
44048;SDS011;29717;47.028;15.470;2022-08-05T04:04:34;6.03;;;5.43;;
44048;SDS011;29717;47.028;15.470;2022-08-05T04:07:02;6.25;;;5.55;;
44048;SDS011;29717;47.028;15.470;2022-08-05T04:09:31;6.03;;;5.38;;
44048;SDS011;29717;47.028;15.470;2022-08-05T04:11:58;5.90;;;5.10;;
44048;SDS011;29717;47.028;15.470;2022-08-05T04:14:25;6.32;;;5.22;;
44048;SDS011;29717;47.028;15.470;2022-08-05T04:16:52;5.57;;;4.97;;
44048;SDS011;29717;47.028;15.470;2022-08-05T04:19:20;5.47;;;5.00;;
44048;SDS011;29717;47.028;15.470;2022-08-05T04:21:48;8.45;;;4.75;;
44048;SDS011;29717;47.028;15.470;2022-08-05T04:24:15;6.70;;;5.40;;
44048;SDS011;29717;47.028;15.470;2022-08-05T04:26:41;5.13;;;4.63;;
44048;SDS011;29717;47.028;15.470;2022-08-05T04:29:08;7.20;;;5.07;;
44048;SDS011;29717;47.028;15.470;2022-08-05T04:31:35;5.13;;;4.63;;
44048;SDS011;29717;47.028;15.470;2022-08-05T04:34:02;5.53;;;4.97;;
44048;SDS011;29717;47.028;15.470;2022-08-05T04:36:29;5.18;;;4.75;;
44048;SDS011;29717;47.028;15.470;2022-08-05T04:38:58;5.40;;;4.75;;
44048;SDS011;29717;47.028;15.470;2022-08-05T04:41:25;5.13;;;4.65;;
44048;SDS011;29717;47.028;15.470;2022-08-05T04:43:52;7.43;;;5.50;;
44048;SDS011;29717;47.028;15.470;2022-08-05T04:46:19;7.13;;;5.50;;
44048;SDS011;29717;47.028;15.470;2022-08-05T04:48:45;7.07;;;4.93;;
44048;SDS011;29717;47.028;15.470;2022-08-05T04:51:12;6.47;;;4.90;;
44048;SDS011;29717;47.028;15.470;2022-08-05T04:53:39;5.45;;;5.03;;
44048;SDS011;29717;47.028;15.470;2022-08-05T04:56:08;8.80;;;5.00;;
44048;SDS011;29717;47.028;15.470;2022-08-05T04:58:35;6.03;;;4.80;;
44048;SDS011;29717;47.028;15.470;2022-08-05T05:01:01;5.60;;;5.03;;
44048;SDS011;29717;47.028;15.470;2022-08-05T05:03:28;5.40;;;4.90;;
44048;SDS011;29717;47.028;15.470;2022-08-05T05:05:55;5.05;;;4.65;;
44048;SDS011;29717;47.028;15.470;2022-08-05T05:08:21;5.20;;;4.72;;
44048;SDS011;29717;47.028;15.470;2022-08-05T05:10:48;6.72;;;4.88;;
44048;SDS011;29717;47.028;15.470;2022-08-05T05:13:16;4.65;;;4.25;;
44048;SDS011;29717;47.028;15.470;2022-08-05T05:15:44;5.20;;;4.55;;
44048;SDS011;29717;47.028;15.470;2022-08-05T05:18:11;7.78;;;4.53;;
44048;SDS011;29717;47.028;15.470;2022-08-05T05:20:42;6.18;;;4.57;;
44048;SDS011;29717;47.028;15.470;2022-08-05T05:23:09;7.10;;;5.13;;
44048;SDS011;29717;47.028;15.470;2022-08-05T05:25:36;9.95;;;5.03;;
44048;SDS011;29717;47.028;15.470;2022-08-05T05:28:03;10.55;;;5.63;;
44048;SDS011;29717;47.028;15.470;2022-08-05T05:30:31;9.57;;;5.55;;
44048;SDS011;29717;47.028;15.470;2022-08-05T05:32:58;11.95;;;6.20;;
44048;SDS011;29717;47.028;15.470;2022-08-05T05:35:25;9.93;;;5.30;;
44048;SDS011;29717;47.028;15.470;2022-08-05T05:37:53;13.65;;;5.85;;
44048;SDS011;29717;47.028;15.470;2022-08-05T05:40:21;11.98;;;6.03;;
44048;SDS011;29717;47.028;15.470;2022-08-05T05:42:48;11.55;;;5.35;;
44048;SDS011;29717;47.028;15.470;2022-08-05T05:45:15;8.75;;;5.38;;
44048;SDS011;29717;47.028;15.470;2022-08-05T05:47:44;11.65;;;5.22;;
44048;SDS011;29717;47.028;15.470;2022-08-05T05:50:12;9.48;;;5.03;;
44048;SDS011;29717;47.028;15.470;2022-08-05T05:52:40;7.82;;;5.45;;
44048;SDS011;29717;47.028;15.470;2022-08-05T05:55:07;6.25;;;5.65;;
44048;SDS011;29717;47.028;15.470;2022-08-05T05:57:34;8.73;;;5.20;;
44048;SDS011;29717;47.028;15.470;2022-08-05T06:00:01;9.27;;;5.53;;
44048;SDS011;29717;47.028;15.470;2022-08-05T06:02:28;7.45;;;5.43;;
44048;SDS011;29717;47.028;15.470;2022-08-05T06:04:57;7.25;;;5.55;;
44048;SDS011;29717;47.028;15.470;2022-08-05T06:07:28;12.90;;;5.88;;
44048;SDS011;29717;47.028;15.470;2022-08-05T06:09:55;6.93;;;5.30;;
44048;SDS011;29717;47.028;15.470;2022-08-05T06:12:21;7.38;;;5.40;;
44048;SDS011;29717;47.028;15.470;2022-08-05T06:14:48;8.00;;;5.53;;
44048;SDS011;29717;47.028;15.470;2022-08-05T06:17:22;7.68;;;5.65;;
44048;SDS011;29717;47.028;15.470;2022-08-05T06:20:06;7.03;;;5.78;;
44048;SDS011;29717;47.028;15.470;2022-08-05T06:22:33;11.57;;;6.13;;
44048;SDS011;29717;47.028;15.470;2022-08-05T06:25:03;11.90;;;6.18;;
44048;SDS011;29717;47.028;15.470;2022-08-05T06:27:33;11.23;;;6.03;;
44048;SDS011;29717;47.028;15.470;2022-08-05T06:30:01;10.98;;;6.50;;
44048;SDS011;29717;47.028;15.470;2022-08-05T06:32:32;9.57;;;7.35;;
44048;SDS011;29717;47.028;15.470;2022-08-05T06:34:59;9.65;;;5.85;;
44048;SDS011;29717;47.028;15.470;2022-08-05T06:37:30;6.40;;;5.07;;
44048;SDS011;29717;47.028;15.470;2022-08-05T06:40:03;6.28;;;5.55;;
44048;SDS011;29717;47.028;15.470;2022-08-05T06:42:30;6.30;;;5.38;;
44048;SDS011;29717;47.028;15.470;2022-08-05T06:45:08;5.65;;;4.95;;
44048;SDS011;29717;47.028;15.470;2022-08-05T06:47:34;8.50;;;5.70;;
44048;SDS011;29717;47.028;15.470;2022-08-05T06:50:01;9.48;;;5.60;;
44048;SDS011;29717;47.028;15.470;2022-08-05T06:52:30;8.27;;;5.05;;
44048;SDS011;29717;47.028;15.470;2022-08-05T06:55:02;8.88;;;5.25;;
44048;SDS011;29717;47.028;15.470;2022-08-05T06:57:29;8.48;;;5.10;;
44048;SDS011;29717;47.028;15.470;2022-08-05T07:00:01;10.35;;;4.70;;
44048;SDS011;29717;47.028;15.470;2022-08-05T07:02:29;8.00;;;4.65;;
44048;SDS011;29717;47.028;15.470;2022-08-05T07:04:59;8.18;;;4.55;;
44048;SDS011;29717;47.028;15.470;2022-08-05T07:07:36;6.10;;;4.22;;
44048;SDS011;29717;47.028;15.470;2022-08-05T07:10:04;7.07;;;4.60;;
44048;SDS011;29717;47.028;15.470;2022-08-05T07:12:34;6.18;;;4.70;;
44048;SDS011;29717;47.028;15.470;2022-08-05T07:15:24;6.40;;;4.75;;
44048;SDS011;29717;47.028;15.470;2022-08-05T07:18:09;4.95;;;4.00;;
44048;SDS011;29717;47.028;15.470;2022-08-05T07:20:44;7.22;;;3.90;;
44048;SDS011;29717;47.028;15.470;2022-08-05T07:23:16;9.85;;;4.00;;
44048;SDS011;29717;47.028;15.470;2022-08-05T07:25:44;6.32;;;3.95;;
44048;SDS011;29717;47.028;15.470;2022-08-05T07:28:14;6.00;;;4.35;;
44048;SDS011;29717;47.028;15.470;2022-08-05T07:30:41;4.57;;;3.53;;
44048;SDS011;29717;47.028;15.470;2022-08-05T07:33:28;4.88;;;3.40;;
44048;SDS011;29717;47.028;15.470;2022-08-05T07:35:56;8.77;;;3.55;;
44048;SDS011;29717;47.028;15.470;2022-08-05T07:41:19;4.72;;;3.33;;
44048;SDS011;29717;47.028;15.470;2022-08-05T07:43:49;9.60;;;3.60;;
44048;SDS011;29717;47.028;15.470;2022-08-05T07:46:16;5.18;;;3.33;;
44048;SDS011;29717;47.028;15.470;2022-08-05T07:48:44;5.50;;;3.20;;
44048;SDS011;29717;47.028;15.470;2022-08-05T07:51:11;3.28;;;2.97;;
44048;SDS011;29717;47.028;15.470;2022-08-05T07:53:40;3.08;;;2.72;;
44048;SDS011;29717;47.028;15.470;2022-08-05T07:56:09;4.97;;;3.08;;
44048;SDS011;29717;47.028;15.470;2022-08-05T07:58:37;5.68;;;2.75;;
44048;SDS011;29717;47.028;15.470;2022-08-05T08:01:10;3.28;;;2.50;;
44048;SDS011;29717;47.028;15.470;2022-08-05T08:03:37;3.47;;;3.00;;
44048;SDS011;29717;47.028;15.470;2022-08-05T08:06:06;5.38;;;3.08;;
44048;SDS011;29717;47.028;15.470;2022-08-05T08:08:51;5.03;;;2.33;;
44048;SDS011;29717;47.028;15.470;2022-08-05T08:11:32;4.10;;;2.50;;
44048;SDS011;29717;47.028;15.470;2022-08-05T08:14:12;2.78;;;2.17;;
44048;SDS011;29717;47.028;15.470;2022-08-05T08:16:46;2.80;;;2.60;;
44048;SDS011;29717;47.028;15.470;2022-08-05T08:19:14;2.25;;;2.05;;
44048;SDS011;29717;47.028;15.470;2022-08-05T08:21:43;3.65;;;2.13;;
44048;SDS011;29717;47.028;15.470;2022-08-05T08:24:16;3.80;;;2.58;;
44048;SDS011;29717;47.028;15.470;2022-08-05T08:26:43;5.95;;;2.70;;
44048;SDS011;29717;47.028;15.470;2022-08-05T08:29:12;3.58;;;2.42;;
44048;SDS011;29717;47.028;15.470;2022-08-05T08:31:38;2.90;;;2.60;;
44048;SDS011;29717;47.028;15.470;2022-08-05T08:34:08;2.42;;;2.25;;
44048;SDS011;29717;47.028;15.470;2022-08-05T08:36:39;3.08;;;2.55;;
44048;SDS011;29717;47.028;15.470;2022-08-05T08:39:06;3.42;;;2.75;;
44048;SDS011;29717;47.028;15.470;2022-08-05T08:41:33;5.20;;;3.00;;
44048;SDS011;29717;47.028;15.470;2022-08-05T08:44:05;3.15;;;2.85;;
44048;SDS011;29717;47.028;15.470;2022-08-05T08:46:37;3.47;;;2.85;;
44048;SDS011;29717;47.028;15.470;2022-08-05T08:49:18;2.95;;;2.75;;
44048;SDS011;29717;47.028;15.470;2022-08-05T08:51:52;9.95;;;2.80;;
44048;SDS011;29717;47.028;15.470;2022-08-05T08:54:20;5.93;;;2.40;;
44048;SDS011;29717;47.028;15.470;2022-08-05T08:56:50;4.00;;;2.70;;
44048;SDS011;29717;47.028;15.470;2022-08-05T08:59:17;2.38;;;2.17;;
44048;SDS011;29717;47.028;15.470;2022-08-05T09:01:54;3.92;;;2.42;;
44048;SDS011;29717;47.028;15.470;2022-08-05T09:04:35;2.42;;;2.22;;
44048;SDS011;29717;47.028;15.470;2022-08-05T09:07:03;4.93;;;2.53;;
44048;SDS011;29717;47.028;15.470;2022-08-05T09:09:44;3.38;;;2.35;;
44048;SDS011;29717;47.028;15.470;2022-08-05T09:12:18;2.58;;;2.40;;
44048;SDS011;29717;47.028;15.470;2022-08-05T09:14:53;2.88;;;2.10;;
44048;SDS011;29717;47.028;15.470;2022-08-05T09:17:42;5.13;;;2.40;;
44048;SDS011;29717;47.028;15.470;2022-08-05T09:20:26;2.97;;;2.20;;
44048;SDS011;29717;47.028;15.470;2022-08-05T09:23:04;3.13;;;2.30;;
44048;SDS011;29717;47.028;15.470;2022-08-05T09:25:42;3.65;;;2.40;;
44048;SDS011;29717;47.028;15.470;2022-08-05T09:28:19;2.58;;;2.00;;
44048;SDS011;29717;47.028;15.470;2022-08-05T09:30:52;3.60;;;2.25;;
44048;SDS011;29717;47.028;15.470;2022-08-05T09:33:24;3.20;;;2.10;;
44048;SDS011;29717;47.028;15.470;2022-08-05T09:35:57;2.40;;;2.20;;
44048;SDS011;29717;47.028;15.470;2022-08-05T09:38:24;3.40;;;2.20;;
44048;SDS011;29717;47.028;15.470;2022-08-05T09:41:04;2.58;;;2.25;;
44048;SDS011;29717;47.028;15.470;2022-08-05T09:43:32;2.88;;;2.30;;
44048;SDS011;29717;47.028;15.470;2022-08-05T09:46:24;2.53;;;2.33;;
44048;SDS011;29717;47.028;15.470;2022-08-05T09:49:05;2.35;;;2.10;;
44048;SDS011;29717;47.028;15.470;2022-08-05T09:51:49;2.85;;;2.25;;
44048;SDS011;29717;47.028;15.470;2022-08-05T09:54:31;2.55;;;2.35;;
44048;SDS011;29717;47.028;15.470;2022-08-05T09:57:14;2.78;;;2.22;;
44048;SDS011;29717;47.028;15.470;2022-08-05T10:00:14;2.50;;;2.30;;
44048;SDS011;29717;47.028;15.470;2022-08-05T10:02:55;3.40;;;2.22;;
44048;SDS011;29717;47.028;15.470;2022-08-05T10:05:45;3.65;;;2.20;;
44048;SDS011;29717;47.028;15.470;2022-08-05T10:08:19;2.50;;;2.30;;
44048;SDS011;29717;47.028;15.470;2022-08-05T10:10:59;5.05;;;2.70;;
44048;SDS011;29717;47.028;15.470;2022-08-05T10:14:02;2.33;;;2.22;;
44048;SDS011;29717;47.028;15.470;2022-08-05T10:16:45;3.50;;;2.55;;
44048;SDS011;29717;47.028;15.470;2022-08-05T10:19:17;3.65;;;2.15;;
44048;SDS011;29717;47.028;15.470;2022-08-05T10:21:55;3.63;;;2.50;;
44048;SDS011;29717;47.028;15.470;2022-08-05T10:24:39;6.68;;;2.50;;
44048;SDS011;29717;47.028;15.470;2022-08-05T10:27:22;4.68;;;2.40;;
44048;SDS011;29717;47.028;15.470;2022-08-05T10:29:53;2.60;;;2.40;;
44048;SDS011;29717;47.028;15.470;2022-08-05T10:32:22;2.75;;;2.30;;
44048;SDS011;29717;47.028;15.470;2022-08-05T10:34:53;5.45;;;2.30;;
44048;SDS011;29717;47.028;15.470;2022-08-05T10:37:30;2.30;;;2.10;;
44048;SDS011;29717;47.028;15.470;2022-08-05T10:39:58;4.47;;;2.30;;
44048;SDS011;29717;47.028;15.470;2022-08-05T10:42:31;3.35;;;2.08;;
44048;SDS011;29717;47.028;15.470;2022-08-05T10:45:04;2.30;;;2.10;;
44048;SDS011;29717;47.028;15.470;2022-08-05T10:47:34;11.52;;;3.25;;
44048;SDS011;29717;47.028;15.470;2022-08-05T10:50:09;2.47;;;2.30;;
44048;SDS011;29717;47.028;15.470;2022-08-05T10:52:44;2.50;;;2.30;;
44048;SDS011;29717;47.028;15.470;2022-08-05T10:55:12;2.50;;;2.30;;
44048;SDS011;29717;47.028;15.470;2022-08-05T10:57:43;2.50;;;2.30;;
44048;SDS011;29717;47.028;15.470;2022-08-05T11:00:14;3.15;;;2.17;;
44048;SDS011;29717;47.028;15.470;2022-08-05T11:06:01;3.63;;;2.25;;
44048;SDS011;29717;47.028;15.470;2022-08-05T11:08:34;3.50;;;2.28;;
44048;SDS011;29717;47.028;15.470;2022-08-05T11:13:51;2.78;;;2.22;;
44048;SDS011;29717;47.028;15.470;2022-08-05T11:16:32;3.20;;;2.35;;
44048;SDS011;29717;47.028;15.470;2022-08-05T11:19:26;2.78;;;2.58;;
44048;SDS011;29717;47.028;15.470;2022-08-05T11:28:32;2.90;;;2.70;;
44048;SDS011;29717;47.028;15.470;2022-08-05T11:34:03;2.38;;;2.17;;
44048;SDS011;29717;47.028;15.470;2022-08-05T11:36:40;3.67;;;2.20;;
44048;SDS011;29717;47.028;15.470;2022-08-05T11:39:09;3.55;;;2.33;;
44048;SDS011;29717;47.028;15.470;2022-08-05T11:41:37;2.67;;;2.40;;
44048;SDS011;29717;47.028;15.470;2022-08-05T11:44:07;2.60;;;2.40;;
44048;SDS011;29717;47.028;15.470;2022-08-05T11:46:36;2.67;;;2.13;;
44048;SDS011;29717;47.028;15.470;2022-08-05T11:49:04;2.75;;;2.20;;
44048;SDS011;29717;47.028;15.470;2022-08-05T11:51:31;2.97;;;2.00;;
44048;SDS011;29717;47.028;15.470;2022-08-05T11:53:58;2.70;;;2.50;;
44048;SDS011;29717;47.028;15.470;2022-08-05T11:56:40;2.40;;;2.20;;
44048;SDS011;29717;47.028;15.470;2022-08-05T11:59:12;2.20;;;2.10;;
44048;SDS011;29717;47.028;15.470;2022-08-05T12:01:51;3.50;;;2.30;;
44048;SDS011;29717;47.028;15.470;2022-08-05T12:04:18;3.03;;;2.65;;
44048;SDS011;29717;47.028;15.470;2022-08-05T12:06:45;2.63;;;2.30;;
44048;SDS011;29717;47.028;15.470;2022-08-05T12:09:12;2.40;;;2.20;;
44048;SDS011;29717;47.028;15.470;2022-08-05T12:11:42;5.53;;;2.50;;
44048;SDS011;29717;47.028;15.470;2022-08-05T12:14:09;2.60;;;2.40;;
44048;SDS011;29717;47.028;15.470;2022-08-05T12:16:40;4.03;;;2.28;;
44048;SDS011;29717;47.028;15.470;2022-08-05T12:19:08;5.05;;;2.30;;
44048;SDS011;29717;47.028;15.470;2022-08-05T12:21:40;6.00;;;2.47;;
44048;SDS011;29717;47.028;15.470;2022-08-05T12:24:08;4.32;;;2.33;;
44048;SDS011;29717;47.028;15.470;2022-08-05T12:26:36;2.20;;;2.00;;
44048;SDS011;29717;47.028;15.470;2022-08-05T12:29:03;2.30;;;2.10;;
44048;SDS011;29717;47.028;15.470;2022-08-05T12:31:31;2.92;;;2.60;;
44048;SDS011;29717;47.028;15.470;2022-08-05T12:34:00;20.23;;;3.15;;
44048;SDS011;29717;47.028;15.470;2022-08-05T12:36:27;4.63;;;2.40;;
44048;SDS011;29717;47.028;15.470;2022-08-05T12:38:55;2.25;;;2.05;;
44048;SDS011;29717;47.028;15.470;2022-08-05T12:41:22;2.40;;;2.20;;
44048;SDS011;29717;47.028;15.470;2022-08-05T12:43:50;2.03;;;1.92;;
44048;SDS011;29717;47.028;15.470;2022-08-05T12:46:20;2.95;;;2.10;;
44048;SDS011;29717;47.028;15.470;2022-08-05T12:48:55;2.13;;;1.92;;
44048;SDS011;29717;47.028;15.470;2022-08-05T12:51:23;2.03;;;1.92;;
44048;SDS011;29717;47.028;15.470;2022-08-05T12:53:52;1.90;;;1.80;;
44048;SDS011;29717;47.028;15.470;2022-08-05T12:56:23;1.90;;;1.80;;
44048;SDS011;29717;47.028;15.470;2022-08-05T13:01:35;3.05;;;2.17;;
44048;SDS011;29717;47.028;15.470;2022-08-05T13:04:02;2.55;;;2.03;;
44048;SDS011;29717;47.028;15.470;2022-08-05T13:06:31;2.22;;;2.03;;
44048;SDS011;29717;47.028;15.470;2022-08-05T13:08:59;2.10;;;2.00;;
44048;SDS011;29717;47.028;15.470;2022-08-05T13:11:31;2.22;;;2.03;;
44048;SDS011;29717;47.028;15.470;2022-08-05T13:13:59;2.55;;;2.05;;
44048;SDS011;29717;47.028;15.470;2022-08-05T13:16:26;2.92;;;2.00;;
44048;SDS011;29717;47.028;15.470;2022-08-05T13:18:53;2.35;;;2.17;;
44048;SDS011;29717;47.028;15.470;2022-08-05T13:21:20;2.63;;;2.08;;
44048;SDS011;29717;47.028;15.470;2022-08-05T13:23:49;2.78;;;2.10;;
44048;SDS011;29717;47.028;15.470;2022-08-05T13:26:16;2.58;;;2.25;;
44048;SDS011;29717;47.028;15.470;2022-08-05T13:28:43;2.60;;;2.40;;
44048;SDS011;29717;47.028;15.470;2022-08-05T13:31:09;10.07;;;2.58;;
44048;SDS011;29717;47.028;15.470;2022-08-05T13:33:36;4.50;;;2.40;;
44048;SDS011;29717;47.028;15.470;2022-08-05T13:36:06;3.85;;;2.90;;
44048;SDS011;29717;47.028;15.470;2022-08-05T13:38:33;2.60;;;2.45;;
44048;SDS011;29717;47.028;15.470;2022-08-05T13:41:01;2.70;;;2.20;;
44048;SDS011;29717;47.028;15.470;2022-08-05T13:43:29;2.97;;;2.28;;
44048;SDS011;29717;47.028;15.470;2022-08-05T13:45:55;3.80;;;2.50;;
44048;SDS011;29717;47.028;15.470;2022-08-05T13:48:23;3.13;;;2.40;;
44048;SDS011;29717;47.028;15.470;2022-08-05T13:50:49;3.85;;;2.70;;
44048;SDS011;29717;47.028;15.470;2022-08-05T13:53:16;2.97;;;2.75;;
44048;SDS011;29717;47.028;15.470;2022-08-05T13:55:43;2.63;;;2.40;;
44048;SDS011;29717;47.028;15.470;2022-08-05T13:58:11;4.00;;;2.67;;
44048;SDS011;29717;47.028;15.470;2022-08-05T14:00:39;3.00;;;2.72;;
44048;SDS011;29717;47.028;15.470;2022-08-05T14:03:05;3.42;;;2.88;;
44048;SDS011;29717;47.028;15.470;2022-08-05T14:05:32;3.33;;;2.53;;
44048;SDS011;29717;47.028;15.470;2022-08-05T14:07:58;7.32;;;2.60;;
44048;SDS011;29717;47.028;15.470;2022-08-05T14:10:25;2.85;;;2.30;;
44048;SDS011;29717;47.028;15.470;2022-08-05T14:12:52;2.70;;;2.40;;
44048;SDS011;29717;47.028;15.470;2022-08-05T14:15:20;4.53;;;2.70;;
44048;SDS011;29717;47.028;15.470;2022-08-05T14:17:47;4.57;;;2.70;;
44048;SDS011;29717;47.028;15.470;2022-08-05T14:20:14;3.50;;;2.75;;
44048;SDS011;29717;47.028;15.470;2022-08-05T14:22:41;3.13;;;2.58;;
44048;SDS011;29717;47.028;15.470;2022-08-05T14:25:09;3.83;;;2.38;;
44048;SDS011;29717;47.028;15.470;2022-08-05T14:27:36;4.20;;;2.63;;
44048;SDS011;29717;47.028;15.470;2022-08-05T14:30:02;3.85;;;2.60;;
44048;SDS011;29717;47.028;15.470;2022-08-05T14:32:31;2.83;;;2.58;;
44048;SDS011;29717;47.028;15.470;2022-08-05T14:34:58;3.17;;;2.60;;
44048;SDS011;29717;47.028;15.470;2022-08-05T14:37:25;3.53;;;2.33;;
44048;SDS011;29717;47.028;15.470;2022-08-05T14:39:52;2.85;;;2.65;;
44048;SDS011;29717;47.028;15.470;2022-08-05T14:42:18;3.95;;;2.85;;
44048;SDS011;29717;47.028;15.470;2022-08-05T14:44:46;3.38;;;3.08;;
44048;SDS011;29717;47.028;15.470;2022-08-05T14:47:13;8.10;;;2.97;;
44048;SDS011;29717;47.028;15.470;2022-08-05T14:49:41;3.10;;;2.80;;
44048;SDS011;29717;47.028;15.470;2022-08-05T14:52:08;3.70;;;2.92;;
44048;SDS011;29717;47.028;15.470;2022-08-05T14:54:35;2.60;;;2.40;;
44048;SDS011;29717;47.028;15.470;2022-08-05T14:57:02;5.18;;;2.35;;
44048;SDS011;29717;47.028;15.470;2022-08-05T14:59:28;3.25;;;3.05;;
44048;SDS011;29717;47.028;15.470;2022-08-05T15:01:55;3.08;;;2.40;;
44048;SDS011;29717;47.028;15.470;2022-08-05T15:04:23;4.28;;;2.90;;
44048;SDS011;29717;47.028;15.470;2022-08-05T15:06:51;3.83;;;2.67;;
44048;SDS011;29717;47.028;15.470;2022-08-05T15:09:18;3.00;;;2.78;;
44048;SDS011;29717;47.028;15.470;2022-08-05T15:11:45;5.25;;;2.55;;